createdAt,value
2022-11-02T00:00:30.312Z,6.70
2022-11-02T00:02:57.738Z,5.97
2022-11-02T00:05:26.593Z,5.53
2022-11-02T00:07:55.665Z,5.97
2022-11-02T00:10:24.647Z,8.95
2022-11-02T00:12:52.984Z,5.50
2022-11-02T00:15:20.404Z,5.53
2022-11-02T00:17:54.378Z,6.82
2022-11-02T00:20:21.757Z,6.78
2022-11-02T00:22:52.229Z,6.45
2022-11-02T00:25:22.382Z,6.38
2022-11-02T00:27:49.856Z,7.65
2022-11-02T00:30:17.333Z,6.10
2022-11-02T00:32:44.578Z,5.53
2022-11-02T00:35:12.045Z,5.80
2022-11-02T00:37:39.399Z,7.10
2022-11-02T00:40:07.333Z,5.25
2022-11-02T00:42:34.665Z,6.22
2022-11-02T00:45:01.739Z,4.88
2022-11-02T00:47:28.955Z,5.93
2022-11-02T00:49:56.483Z,6.30
2022-11-02T00:52:23.584Z,6.65
2022-11-02T00:54:50.728Z,5.80
2022-11-02T00:57:17.948Z,4.35
2022-11-02T00:59:45.054Z,5.63
2022-11-02T01:02:12.225Z,5.30
2022-11-02T01:04:39.499Z,4.70
2022-11-02T01:07:06.813Z,4.30
2022-11-02T01:09:34.713Z,4.93
2022-11-02T01:12:01.792Z,3.70
2022-11-02T01:14:29.037Z,3.85
2022-11-02T01:16:58.062Z,4.13
2022-11-02T01:19:26.092Z,3.50
2022-11-02T01:21:53.417Z,4.30
2022-11-02T01:24:20.480Z,3.53
2022-11-02T01:26:51.923Z,3.60
2022-11-02T01:29:19.247Z,2.92
2022-11-02T01:31:46.339Z,4.82
2022-11-02T01:34:13.624Z,3.53
2022-11-02T01:36:41.134Z,5.72
2022-11-02T01:39:08.410Z,6.93
2022-11-02T01:41:35.523Z,6.53
2022-11-02T01:44:04.484Z,8.30
2022-11-02T01:46:42.776Z,2.92
2022-11-02T01:49:17.859Z,7.45
2022-11-02T01:52:12.123Z,3.70
2022-11-02T01:54:49.008Z,2.30
2022-11-02T01:57:21.276Z,3.67
2022-11-02T02:00:12.540Z,6.30
2022-11-02T02:02:52.349Z,2.27
2022-11-02T02:05:22.710Z,5.30
2022-11-02T02:07:51.014Z,2.20
2022-11-02T02:10:18.987Z,1.70
2022-11-02T02:12:46.823Z,3.35
2022-11-02T02:15:14.596Z,3.45
2022-11-02T02:18:00.685Z,7.72
2022-11-02T02:20:50.215Z,3.10
2022-11-02T02:23:54.811Z,3.35
2022-11-02T02:26:46.543Z,4.43
2022-11-02T02:29:40.645Z,4.60
2022-11-02T02:32:36.786Z,4.07
2022-11-02T02:35:21.959Z,2.25
2022-11-02T02:38:04.204Z,5.50
2022-11-02T02:40:35.688Z,2.65
2022-11-02T02:43:32.195Z,5.38
2022-11-02T02:46:06.953Z,9.68
2022-11-02T02:48:36.859Z,8.70
2022-11-02T02:51:29.721Z,2.70
2022-11-02T02:54:14.340Z,8.40
2022-11-02T02:56:52.050Z,5.93
2022-11-02T02:59:30.939Z,2.10
2022-11-02T03:01:58.938Z,3.65
2022-11-02T03:04:26.730Z,2.28
2022-11-02T03:06:58.493Z,5.15
2022-11-02T03:09:35.267Z,3.40
2022-11-02T03:12:37.223Z,4.80
2022-11-02T03:15:37.943Z,3.60
2022-11-02T03:18:16.782Z,2.40
2022-11-02T03:21:05.725Z,2.30
2022-11-02T03:24:00.978Z,4.13
2022-11-02T03:26:38.634Z,2.17
2022-11-02T03:29:13.117Z,2.33
2022-11-02T03:32:07.782Z,4.05
2022-11-02T03:34:53.021Z,3.22
2022-11-02T03:37:56.418Z,2.08
2022-11-02T03:40:39.535Z,2.03
2022-11-02T03:43:07.937Z,4.80
2022-11-02T03:45:44.975Z,2.92
2022-11-02T03:48:14.895Z,3.05
2022-11-02T03:50:48.644Z,1.98
2022-11-02T03:54:08.224Z,4.18
2022-11-02T03:56:42.387Z,2.30
2022-11-02T03:59:09.633Z,2.30
2022-11-02T04:01:46.700Z,2.38
2022-11-02T04:04:14.323Z,2.75
2022-11-02T04:06:43.408Z,2.70
2022-11-02T04:09:11.635Z,2.30
2022-11-02T04:11:57.298Z,2.10
2022-11-02T04:14:40.134Z,3.08
2022-11-02T04:20:01.497Z,2.40
2022-11-02T04:22:47.445Z,2.10
2022-11-02T04:25:19.387Z,2.50
2022-11-02T04:27:50.456Z,2.05
2022-11-02T04:30:22.004Z,2.10
2022-11-02T04:33:09.791Z,2.85
2022-11-02T04:35:37.848Z,2.40
2022-11-02T04:38:23.688Z,2.95
2022-11-02T04:41:10.924Z,2.28
2022-11-02T04:43:38.153Z,2.25
2022-11-02T04:46:05.418Z,2.22
2022-11-02T04:48:33.023Z,2.63
2022-11-02T04:51:00.183Z,2.47
2022-11-02T04:53:27.434Z,3.35
2022-11-02T04:55:54.637Z,4.03
2022-11-02T04:58:21.889Z,4.05
2022-11-02T05:00:49.004Z,3.67
2022-11-02T05:03:16.164Z,3.97
2022-11-02T05:05:43.875Z,3.17
2022-11-02T05:08:11.403Z,3.15
2022-11-02T05:10:38.505Z,3.65
2022-11-02T05:13:06.126Z,3.72
2022-11-02T05:15:33.370Z,3.75
2022-11-02T05:18:00.628Z,3.40
2022-11-02T05:20:27.762Z,3.05
2022-11-02T05:22:54.881Z,3.10
2022-11-02T05:25:22.378Z,2.47
2022-11-02T05:27:49.678Z,3.58
2022-11-02T05:30:16.929Z,4.03
2022-11-02T05:32:44.139Z,3.25
2022-11-02T05:35:11.230Z,3.67
2022-11-02T05:37:38.384Z,2.95
2022-11-02T05:40:06.862Z,2.90
2022-11-02T05:42:34.656Z,3.15
2022-11-02T05:45:01.731Z,3.45
2022-11-02T05:47:28.881Z,3.33
2022-11-02T05:49:56.179Z,2.47
2022-11-02T05:52:23.417Z,2.97
2022-11-02T05:54:50.496Z,3.15
2022-11-02T05:57:18.508Z,3.00
2022-11-02T05:59:48.401Z,3.25
2022-11-02T06:02:16.734Z,3.20
2022-11-02T06:04:43.824Z,3.10
2022-11-02T06:07:11.165Z,4.13
2022-11-02T06:09:38.146Z,3.13
2022-11-02T06:12:05.813Z,2.70
2022-11-02T06:14:32.999Z,4.43
2022-11-02T06:17:00.220Z,3.15
2022-11-02T06:19:27.312Z,3.47
2022-11-02T06:21:54.467Z,4.07
2022-11-02T06:24:21.709Z,2.80
2022-11-02T06:26:49.080Z,2.75
2022-11-02T06:29:16.272Z,2.20
2022-11-02T06:31:43.577Z,2.42
2022-11-02T06:34:10.790Z,3.28
2022-11-02T06:36:37.941Z,2.65
2022-11-02T06:39:06.110Z,2.85
2022-11-02T06:41:33.712Z,3.15
2022-11-02T06:44:00.926Z,2.67
2022-11-02T06:46:28.005Z,3.83
2022-11-02T06:48:55.289Z,2.53
2022-11-02T06:51:22.458Z,2.10
2022-11-02T06:53:49.829Z,3.47
2022-11-02T06:56:17.184Z,3.15
2022-11-02T06:58:44.463Z,2.38
2022-11-02T07:01:11.731Z,2.67
2022-11-02T07:03:39.022Z,3.83
2022-11-02T07:06:11.050Z,3.60
2022-11-02T07:08:40.073Z,2.90
2022-11-02T07:11:07.430Z,2.90
2022-11-02T07:13:34.474Z,3.10
2022-11-02T07:16:01.750Z,2.67
2022-11-02T07:18:28.907Z,2.35
2022-11-02T07:20:59.843Z,2.53
2022-11-02T07:23:27.506Z,1.90
2022-11-02T07:25:55.003Z,2.95
2022-11-02T07:28:22.110Z,2.85
2022-11-02T07:30:49.503Z,2.35
2022-11-02T07:33:16.724Z,2.67
2022-11-02T07:35:43.904Z,2.97
2022-11-02T07:38:11.935Z,3.33
2022-11-02T07:40:39.220Z,2.70
2022-11-02T07:43:07.748Z,2.80
2022-11-02T07:45:35.519Z,2.00
2022-11-02T07:48:02.771Z,2.30
2022-11-02T07:50:30.086Z,4.15
2022-11-02T07:52:58.767Z,2.60
2022-11-02T07:55:29.363Z,2.58
2022-11-02T07:58:00.453Z,2.78
2022-11-02T08:00:31.737Z,3.15
2022-11-02T08:03:01.150Z,2.72
2022-11-02T08:05:30.572Z,4.55
2022-11-02T08:08:12.774Z,2.38
2022-11-02T08:10:40.832Z,2.90
2022-11-02T08:13:09.933Z,2.55
2022-11-02T08:15:37.751Z,2.47
2022-11-02T08:18:09.972Z,2.50
2022-11-02T08:20:37.351Z,3.22
2022-11-02T08:23:05.625Z,3.55
2022-11-02T08:25:34.009Z,2.60
2022-11-02T08:28:01.939Z,2.97
2022-11-02T08:30:31.775Z,3.33
2022-11-02T08:33:08.248Z,3.58
2022-11-02T08:35:37.645Z,3.15
2022-11-02T08:38:06.013Z,4.53
2022-11-02T08:40:35.009Z,2.75
2022-11-02T08:43:12.221Z,4.05
2022-11-02T08:46:13.255Z,2.67
2022-11-02T08:48:30.047Z,3.15
2022-11-02T08:50:57.295Z,3.92
2022-11-02T08:53:24.659Z,2.65
2022-11-02T08:55:51.779Z,2.85
2022-11-02T08:58:19.145Z,2.72
2022-11-02T09:00:46.249Z,2.38
2022-11-02T09:03:16.031Z,3.47
2022-11-02T09:05:45.787Z,3.15
2022-11-02T09:08:18.950Z,3.03
2022-11-02T09:10:51.953Z,3.13
2022-11-02T09:13:25.353Z,3.40
2022-11-02T09:15:56.159Z,3.08
2022-11-02T09:18:24.283Z,3.13
2022-11-02T09:20:51.717Z,2.45
2022-11-02T09:23:21.200Z,2.78
2022-11-02T09:25:49.832Z,2.33
2022-11-02T09:28:17.145Z,2.58
2022-11-02T09:30:44.631Z,2.78
2022-11-02T09:33:13.507Z,2.65
2022-11-02T09:35:45.918Z,4.15
2022-11-02T09:38:13.815Z,2.95
2022-11-02T09:41:02.030Z,3.05
2022-11-02T09:43:32.845Z,4.25
2022-11-02T09:46:03.725Z,2.85
2022-11-02T09:48:46.859Z,2.72
2022-11-02T09:51:33.047Z,3.20
2022-11-02T09:54:28.904Z,2.95
2022-11-02T09:57:02.787Z,2.15
2022-11-02T09:59:30.115Z,3.85
2022-11-02T10:02:42.606Z,2.50
2022-11-02T10:05:50.626Z,2.33
2022-11-02T10:08:48.201Z,1.73
2022-11-02T10:11:28.162Z,1.75
2022-11-02T10:14:06.894Z,2.00
2022-11-02T10:16:46.623Z,2.30
2022-11-02T10:19:19.899Z,3.13
2022-11-02T10:21:57.212Z,2.17
2022-11-02T10:24:33.917Z,2.47
2022-11-02T10:27:11.560Z,2.50
2022-11-02T10:30:02.266Z,2.03
2022-11-02T10:32:33.055Z,2.63
2022-11-02T10:35:30.047Z,1.70
2022-11-02T10:38:30.375Z,1.30
2022-11-02T10:41:22.270Z,1.98
2022-11-02T10:44:16.886Z,1.98
2022-11-02T10:47:07.962Z,2.00
2022-11-02T10:50:14.043Z,2.10
2022-11-02T10:52:45.327Z,1.35
2022-11-02T10:55:38.567Z,2.70
2022-11-02T10:58:09.572Z,2.42
2022-11-02T11:00:38.198Z,1.50
2022-11-02T11:03:13.564Z,1.95
2022-11-02T11:05:59.689Z,1.90
2022-11-02T11:08:43.608Z,1.52
2022-11-02T11:11:25.627Z,2.70
2022-11-02T11:16:56.478Z,1.55
2022-11-02T11:19:40.112Z,1.27
2022-11-02T11:22:29.295Z,1.85
2022-11-02T11:25:27.716Z,2.33
2022-11-02T11:27:56.064Z,3.78
2022-11-02T11:33:31.161Z,1.63
2022-11-02T11:35:58.676Z,1.65
2022-11-02T11:38:27.508Z,1.92
2022-11-02T11:40:58.675Z,2.22
2022-11-02T11:43:30.598Z,2.80
2022-11-02T11:48:54.170Z,2.25
2022-11-02T11:51:49.387Z,1.63
2022-11-02T11:54:24.755Z,2.10
2022-11-02T11:57:29.485Z,1.85
2022-11-02T11:59:59.960Z,2.17
2022-11-02T12:02:42.797Z,3.03
2022-11-02T12:05:18.424Z,1.10
2022-11-02T12:08:06.663Z,1.80
2022-11-02T12:10:42.785Z,2.20
2022-11-02T12:13:45.903Z,1.50
2022-11-02T12:16:58.747Z,1.75
2022-11-02T12:19:41.945Z,3.97
2022-11-02T12:22:24.508Z,3.17
2022-11-02T12:25:13.283Z,3.00
2022-11-02T12:28:17.085Z,3.20
2022-11-02T12:31:37.771Z,3.45
2022-11-02T12:34:19.838Z,2.70
2022-11-02T12:40:17.751Z,2.60
2022-11-02T12:43:29.725Z,2.85
2022-11-02T12:46:38.374Z,2.22
2022-11-02T12:49:35.469Z,4.40
2022-11-02T12:52:24.737Z,3.28
2022-11-02T12:54:59.138Z,1.75
2022-11-02T12:57:32.225Z,2.90
2022-11-02T13:00:06.202Z,2.20
2022-11-02T13:02:50.392Z,2.13
2022-11-02T13:05:21.740Z,1.80
2022-11-02T13:08:29.927Z,2.33
2022-11-02T13:11:05.811Z,2.63
2022-11-02T13:13:41.704Z,3.67
2022-11-02T13:16:11.059Z,1.77
2022-11-02T13:18:47.172Z,2.00
2022-11-02T13:21:22.988Z,2.35
2022-11-02T13:23:55.204Z,3.30
2022-11-02T13:26:31.335Z,2.65
2022-11-02T13:29:06.951Z,1.73
2022-11-02T13:31:47.069Z,2.75
2022-11-02T13:34:20.829Z,2.92
2022-11-02T13:36:49.025Z,2.28
2022-11-02T13:39:37.890Z,2.47
2022-11-02T13:42:42.244Z,2.38
2022-11-02T13:45:44.860Z,1.80
2022-11-02T13:49:03.831Z,1.27
2022-11-02T13:51:47.826Z,1.88
2022-11-02T13:54:35.717Z,1.67
2022-11-02T13:57:03.387Z,1.90
2022-11-02T13:59:42.182Z,2.25
2022-11-02T14:02:18.872Z,2.35
2022-11-02T14:04:48.586Z,2.05
2022-11-02T14:07:36.104Z,2.13
2022-11-02T14:10:16.956Z,2.55
2022-11-02T14:12:49.440Z,2.58
2022-11-02T14:15:16.458Z,3.00
2022-11-02T14:18:02.837Z,1.75
2022-11-02T14:20:40.754Z,2.08
2022-11-02T14:23:11.610Z,2.03
2022-11-02T14:25:53.736Z,2.20
2022-11-02T14:31:05.231Z,2.53
2022-11-02T14:33:59.608Z,1.92
2022-11-02T14:36:50.724Z,3.08
2022-11-02T14:39:49.939Z,3.28
2022-11-02T14:42:46.768Z,2.47
2022-11-02T14:46:06.431Z,3.60
2022-11-02T14:48:53.319Z,1.90
2022-11-02T14:51:28.197Z,2.05
2022-11-02T14:54:19.406Z,2.00
2022-11-02T14:57:03.876Z,1.88
2022-11-02T14:59:48.883Z,2.35
2022-11-02T15:02:40.302Z,2.00
2022-11-02T15:05:34.967Z,1.92
2022-11-02T15:08:23.363Z,1.88
2022-11-02T15:10:50.499Z,3.13
2022-11-02T15:13:20.774Z,1.77
2022-11-02T15:15:50.940Z,2.58
2022-11-02T15:18:30.526Z,1.63
2022-11-02T15:21:24.926Z,2.90
2022-11-02T15:24:01.114Z,1.58
2022-11-02T15:26:42.304Z,1.67
2022-11-02T15:29:57.057Z,2.15
2022-11-02T15:32:29.338Z,1.83
2022-11-02T15:34:58.213Z,2.88
2022-11-02T15:37:32.566Z,3.35
2022-11-02T15:40:04.437Z,1.70
2022-11-02T15:43:00.186Z,3.13
2022-11-02T15:46:06.596Z,2.72
2022-11-02T15:49:30.891Z,2.97
2022-11-02T15:52:12.163Z,3.42
2022-11-02T15:55:18.499Z,7.13
2022-11-02T15:58:22.337Z,6.45
2022-11-02T16:01:14.055Z,8.77
2022-11-02T16:03:54.179Z,5.70
2022-11-02T16:06:36.088Z,9.23
2022-11-02T16:09:37.446Z,8.07
2022-11-02T16:12:13.070Z,9.25
2022-11-02T16:14:41.234Z,7.90
2022-11-02T16:17:21.336Z,5.35
2022-11-02T16:19:49.352Z,3.67
2022-11-02T16:22:27.416Z,8.82
2022-11-02T16:24:55.173Z,8.02
2022-11-02T16:27:23.588Z,10.52
2022-11-02T16:29:51.070Z,8.13
2022-11-02T16:32:18.297Z,10.57
2022-11-02T16:34:46.066Z,8.40
2022-11-02T16:37:19.431Z,9.13
2022-11-02T16:39:47.836Z,6.93
2022-11-02T16:42:23.515Z,7.22
2022-11-02T16:45:04.274Z,7.43
2022-11-02T16:47:41.300Z,10.18
2022-11-02T16:50:24.262Z,9.65
2022-11-02T16:53:04.000Z,8.27
2022-11-02T16:55:48.171Z,10.82
2022-11-02T16:58:23.989Z,9.15
2022-11-02T17:01:03.401Z,7.72
2022-11-02T17:03:33.500Z,6.32
2022-11-02T17:06:05.776Z,5.30
2022-11-02T17:08:36.700Z,5.97
2022-11-02T17:11:06.766Z,6.93
2022-11-02T17:13:38.135Z,6.88
2022-11-02T17:16:10.718Z,10.75
2022-11-02T17:18:38.788Z,8.70
2022-11-02T17:21:28.148Z,9.95
2022-11-02T17:23:58.007Z,10.13
2022-11-02T17:26:37.658Z,9.40
2022-11-02T17:29:24.780Z,10.07
2022-11-02T17:32:01.131Z,10.63
2022-11-02T17:34:28.544Z,8.25
2022-11-02T17:36:55.882Z,9.30
2022-11-02T17:39:23.213Z,7.60
2022-11-02T17:42:14.189Z,10.35
2022-11-02T17:44:42.347Z,11.25
2022-11-02T17:47:13.306Z,9.57
2022-11-02T17:49:40.459Z,8.80
2022-11-02T17:52:09.316Z,12.38
2022-11-02T17:54:36.397Z,9.70
2022-11-02T17:57:12.172Z,8.05
2022-11-02T17:59:39.374Z,7.45
2022-11-02T18:02:15.730Z,7.07
2022-11-02T18:07:12.323Z,5.72
2022-11-02T18:09:39.824Z,5.90
2022-11-02T18:12:09.123Z,4.68
2022-11-02T18:14:36.802Z,5.10
2022-11-02T18:17:04.004Z,5.43
2022-11-02T18:19:33.305Z,4.45
2022-11-02T18:22:01.355Z,5.53
2022-11-02T18:24:28.436Z,5.03
2022-11-02T18:26:55.619Z,4.07
2022-11-02T18:29:22.895Z,6.00
2022-11-02T18:31:50.530Z,5.32
2022-11-02T18:34:17.813Z,5.18
2022-11-02T18:36:44.854Z,3.90
2022-11-02T18:39:12.107Z,4.15
2022-11-02T18:41:40.475Z,4.95
2022-11-02T18:44:13.806Z,5.53
2022-11-02T18:46:42.528Z,3.78
2022-11-02T18:49:10.014Z,3.53
2022-11-02T18:51:37.239Z,5.30
2022-11-02T18:54:06.311Z,6.20
2022-11-02T18:56:33.819Z,6.38
2022-11-02T18:59:01.307Z,4.50
2022-11-02T19:01:28.786Z,5.53
2022-11-02T19:04:00.911Z,5.10
2022-11-02T19:06:51.284Z,5.68
2022-11-02T19:09:23.220Z,4.65
2022-11-02T19:12:07.470Z,4.72
2022-11-02T19:14:46.846Z,4.60
2022-11-02T19:17:15.070Z,6.07
2022-11-02T19:19:43.288Z,6.07
2022-11-02T19:22:13.394Z,5.93
2022-11-02T19:24:40.760Z,5.28
2022-11-02T19:27:13.758Z,8.70
2022-11-02T19:29:41.285Z,6.40
2022-11-02T19:32:08.728Z,5.47
2022-11-02T19:34:37.078Z,6.35
2022-11-02T19:37:05.651Z,5.10
2022-11-02T19:39:33.416Z,5.18
2022-11-02T19:42:00.995Z,5.85
2022-11-02T19:44:28.022Z,5.57
2022-11-02T19:46:55.260Z,6.03
2022-11-02T19:49:22.671Z,7.25
2022-11-02T19:51:49.739Z,7.28
2022-11-02T19:54:17.123Z,7.68
2022-11-02T19:56:44.243Z,6.60
2022-11-02T19:59:11.409Z,9.10
2022-11-02T20:01:42.193Z,7.80
2022-11-02T20:04:10.375Z,7.82
2022-11-02T20:06:40.765Z,8.27
2022-11-02T20:09:16.897Z,8.57
2022-11-02T20:11:46.326Z,6.20
2022-11-02T20:14:16.060Z,5.93
2022-11-02T20:16:47.365Z,5.13
2022-11-02T20:19:17.345Z,4.90
2022-11-02T20:21:44.882Z,4.97
2022-11-02T20:24:12.549Z,4.20
2022-11-02T20:26:41.381Z,4.93
2022-11-02T20:29:12.262Z,6.25
2022-11-02T20:31:42.603Z,5.80
2022-11-02T20:34:12.779Z,4.78
2022-11-02T20:36:39.970Z,5.68
2022-11-02T20:39:07.573Z,6.28
2022-11-02T20:41:34.879Z,6.82
2022-11-02T20:44:02.031Z,5.43
2022-11-02T20:46:41.099Z,5.30
2022-11-02T20:49:20.600Z,4.47
2022-11-02T20:51:51.437Z,5.65
2022-11-02T20:54:19.934Z,5.10
2022-11-02T20:56:48.357Z,6.05
2022-11-02T20:59:15.827Z,4.57
2022-11-02T21:01:43.246Z,4.57
2022-11-02T21:04:13.869Z,4.55
2022-11-02T21:06:45.855Z,5.82
2022-11-02T21:09:13.019Z,6.38
2022-11-02T21:11:59.171Z,6.10
2022-11-02T21:14:26.353Z,5.95
2022-11-02T21:16:53.475Z,5.43
2022-11-02T21:19:20.696Z,5.40
2022-11-02T21:21:47.807Z,5.60
2022-11-02T21:24:14.996Z,5.03
2022-11-02T21:26:42.122Z,5.47
2022-11-02T21:29:09.938Z,5.22
2022-11-02T21:31:37.184Z,4.82
2022-11-02T21:34:04.416Z,5.32
2022-11-02T21:36:31.710Z,4.53
2022-11-02T21:38:58.936Z,5.25
2022-11-02T21:41:29.030Z,4.95
2022-11-02T21:43:56.493Z,4.97
2022-11-02T21:46:28.571Z,3.42
2022-11-02T21:48:55.957Z,4.63
2022-11-02T21:51:23.375Z,4.70
2022-11-02T21:53:51.917Z,4.95
2022-11-02T21:56:22.902Z,3.20
2022-11-02T21:58:49.928Z,3.50
2022-11-02T22:01:45.324Z,3.60
2022-11-02T22:04:25.672Z,3.95
2022-11-02T22:06:53.195Z,3.08
2022-11-02T22:09:20.985Z,4.60
2022-11-02T22:11:48.039Z,4.45
2022-11-02T22:14:15.291Z,3.67
2022-11-02T22:16:43.792Z,3.08
2022-11-02T22:19:13.874Z,4.40
2022-11-02T22:21:44.317Z,2.90
2022-11-02T22:24:12.600Z,3.58
2022-11-02T22:26:40.876Z,2.92
2022-11-02T22:29:08.763Z,2.92
2022-11-02T22:31:39.477Z,4.28
2022-11-02T22:34:10.532Z,2.65
2022-11-02T22:36:40.937Z,3.00
2022-11-02T22:39:12.649Z,5.30
2022-11-02T22:41:47.856Z,3.15
2022-11-02T22:44:18.796Z,2.92
2022-11-02T22:46:49.650Z,2.77
2022-11-02T22:49:19.399Z,3.97
2022-11-02T22:51:49.344Z,4.20
2022-11-02T22:54:20.501Z,4.35
2022-11-02T22:56:48.717Z,3.63
2022-11-02T22:59:16.706Z,4.63
2022-11-02T23:01:43.985Z,4.80
2022-11-02T23:04:13.846Z,3.45
2022-11-02T23:06:41.000Z,3.55
2022-11-02T23:09:10.612Z,4.30
2022-11-02T23:11:38.418Z,4.05
2022-11-02T23:14:17.102Z,3.75
2022-11-02T23:16:47.143Z,3.70
2022-11-02T23:19:31.590Z,3.78
2022-11-02T23:22:28.939Z,3.53
2022-11-02T23:25:18.014Z,4.45
2022-11-02T23:28:14.661Z,4.47
2022-11-02T23:31:01.474Z,2.78
2022-11-02T23:33:31.697Z,2.78
2022-11-02T23:36:12.687Z,4.05
2022-11-02T23:39:00.458Z,3.08
2022-11-02T23:41:29.270Z,3.05
2022-11-02T23:44:11.951Z,4.55
2022-11-02T23:46:42.174Z,3.58
2022-11-02T23:49:09.682Z,4.18
2022-11-02T23:51:55.626Z,4.20
2022-11-02T23:54:41.404Z,3.60
2022-11-02T23:57:08.627Z,3.13
2022-11-02T23:59:35.893Z,4.28
